Latest Weather Observations for Roseworthy

IDS60801

Issued at 1:51 pm CDT Sunday 16 December 2018 (issued every 10 minutes, with the page automatically refreshed every 10 minutes)

About weather observations | Map of weather stations | Latest weather observations for SA | Other Formats
Station Details ID: 023122 Name: ROSEWORTHY AWS Lat: -34.51 Lon: 138.68 Height: 65.0 m
Data from the previous 72 hours. | See also: Recent months at Roseworthy
Date/Time
CDT
Temp
°C
App
Temp
°C
Dew
Point
°C
Rel
Hum
%
Delta-T
°C
Wind Press
QNH
hPa
Press
MSL
hPa
Rain since
9am
mm
Dir  Spd
km/h
Gust
km/h
Spd
kts
Gust
kts
16/01:30pm 20.3 18.8 16.7 80 2.2 WSW 20 26 11 14 1008.7 1008.5 0.2
16/01:00pm 20.3 19.3 17.9 86 1.5 WSW 20 28 11 15 1008.8 1008.6 0.2
16/12:30pm 19.2 17.8 17.9 92 0.8 WSW 22 30 12 16 1009.0 1008.8 0.2
16/12:00pm 20.5 18.7 16.9 80 2.2 WSW 22 32 12 17 1008.7 1008.5 0.2
16/11:30am 19.8 18.8 17.6 87 1.4 WSW 19 32 10 17 1008.6 1008.4 0.2
16/11:00am 19.6 19.2 18.1 91 0.9 SW 17 20 9 11 1008.3 1008.1 0.2
16/10:30am 18.7 18.7 18.0 96 0.4 SW 15 19 8 10 1008.0 1007.8 0.2
16/10:00am 17.9 17.4 17.9 100 0.0 SW 17 22 9 12 1008.2 1008.0 0.2
16/09:30am 17.9 17.8 17.9 100 0.0 SW 15 22 8 12 1007.9 1007.7 0.2
16/09:00am 17.3 16.6 17.3 100 0.0 WSW 17 20 9 11 1007.8 1007.6 2.2
16/08:30am 17.1 17.1 17.1 100 0.0 WSW 13 17 7 9 1007.6 1007.4 2.2
16/08:00am 17.1 16.7 17.1 100 0.0 WSW 15 20 8 11 1007.2 1007.0 2.0
16/07:30am 17.1 16.7 17.1 100 0.0 WSW 15 19 8 10 1006.8 1006.6 1.8
16/07:00am 16.8 15.9 16.8 100 0.0 WSW 17 24 9 13 1006.4 1006.2 1.8
16/06:30am 16.8 16.3 16.8 100 0.0 W 15 20 8 11 1006.3 1006.1 1.8
16/06:00am 16.8 15.9 16.8 100 0.0 WSW 17 22 9 12 1006.1 1005.9 1.8
16/05:30am 16.7 15.7 16.7 100 0.0 W 17 20 9 11 1005.8 1005.6 1.8
16/05:00am 16.7 15.7 16.7 100 0.0 W 17 24 9 13 1005.4 1005.2 1.4
16/04:30am 16.9 16.0 16.9 100 0.0 W 17 22 9 12 1005.2 1005.0 1.4
16/04:00am 16.9 16.0 16.9 100 0.0 WNW 17 20 9 11 1005.0 1004.8 1.0
16/03:30am 16.8 16.3 16.8 100 0.0 W 15 20 8 11 1004.8 1004.6 1.0
16/03:00am 17.0 16.5 17.0 100 0.0 WSW 15 20 8 11 1004.9 1004.7 0.8
16/02:30am 17.2 16.7 17.0 99 0.1 SW 15 20 8 11 1005.0 1004.8 0.8
16/02:00am 17.6 17.9 17.0 96 0.4 SW 11 17 6 9 1005.0 1004.8 0.8
16/01:30am 17.7 17.3 16.2 91 0.9 W 13 17 7 9 1005.0 1004.8 0.8
16/01:00am 17.8 17.0 16.1 90 1.0 WSW 15 20 8 11 1005.3 1005.1 0.8
16/12:30am 17.9 17.1 16.2 90 1.0 WSW 15 20 8 11 1005.4 1005.2 0.8
16/12:00am 18.0 18.7 17.0 94 0.6 WSW 9 13 5 7 1005.4 1005.2 0.8
 
Date/Time
CDT
Temp
°C
App
Temp
°C
Dew
Point
°C
Rel
Hum
%
Delta-T
°C
Wind Press
QNH
hPa
Press
MSL
hPa
Rain since
9am
mm
Dir  Spd
km/h
Gust
km/h
Spd
kts
Gust
kts
15/11:30pm 17.7 18.0 17.1 96 0.4 W 11 15 6 8 1005.4 1005.2 0.8
15/11:00pm 16.8 16.9 16.5 98 0.2 NW 11 13 6 7 1005.1 1004.9 0.8
15/10:30pm 16.4 16.5 15.6 95 0.5 W 9 11 5 6 1004.8 1004.6 0.8
15/10:00pm 17.5 17.8 16.0 91 0.9 WSW 9 13 5 7 1004.9 1004.7 0.8
15/09:30pm 18.0 17.9 16.0 88 1.2 SW 11 17 6 9 1004.6 1004.4 0.8
15/09:00pm 18.7 17.7 15.6 82 1.8 SW 15 19 8 10 1004.4 1004.2 0.8
15/08:30pm 19.3 17.8 14.3 73 2.9 SW 15 20 8 11 1004.2 1004.0 0.8
15/08:00pm 20.0 18.5 14.1 69 3.4 SW 15 20 8 11 1004.0 1003.8 0.8
15/07:30pm 21.0 18.7 14.6 67 3.8 SW 20 26 11 14 1003.7 1003.5 0.8
15/07:00pm 21.9 19.7 15.0 65 4.1 SW 20 28 11 15 1003.7 1003.5 0.8
15/06:30pm 22.8 20.5 14.6 60 4.9 SW 20 30 11 16 1003.2 1003.0 0.8
15/06:00pm 23.3 19.5 13.5 54 5.7 WSW 26 35 14 19 1002.6 1002.4 0.8
15/05:30pm 24.3 20.5 12.3 47 6.9 WSW 24 32 13 17 1002.1 1001.9 0.8
15/05:00pm 25.1 21.6 12.3 45 7.4 WSW 22 35 12 19 1002.1 1001.9 0.8
15/04:59pm 25.1 22.0 12.3 45 7.4 WSW 20 35 11 19 1002.1 1001.9 0.8
15/04:30pm 24.2 22.6 10.1 41 7.8 N 9 15 5 8 1002.6 1002.4 0.8
15/04:00pm 22.9 22.5 16.2 66 4.1 NNE 13 17 7 9 1002.8 1002.6 0.8
15/03:30pm 21.8 21.1 16.5 72 3.2 NNE 15 17 8 9 1003.2 1003.0 0.8
15/03:00pm 22.7 22.3 14.0 58 5.1 SW 9 17 5 9 1003.6 1003.4 0.0
15/02:30pm 24.0 23.1 13.8 53 6.0 SW 11 17 6 9 1003.6 1003.4 0.0
15/02:00pm 24.1 23.0 13.0 50 6.4 SSW 11 15 6 8 1004.0 1003.8 0.0
15/01:30pm 22.4 20.4 14.0 59 4.9 WSW 17 22 9 12 1004.4 1004.2 0.0
15/01:00pm 24.1 21.4 13.6 52 6.1 WSW 20 32 11 17 1004.5 1004.3 0.0
15/12:30pm 24.4 22.8 10.3 41 7.8 W 9 20 5 11 1004.4 1004.2 0.0
15/12:00pm 24.2 23.0 11.5 45 7.2 W 9 17 5 9 1004.6 1004.4 0.0
15/11:30am 24.2 22.9 12.5 48 6.7 NNW 11 15 6 8 1005.1 1004.9 0.0
15/11:00am 22.7 21.9 11.7 49 6.2 WNW 7 13 4 7 1005.3 1005.1 0.0
15/10:30am 22.0 20.6 12.3 54 5.5 NW 11 19 6 10 1005.6 1005.4 0.0
15/10:00am 20.8 19.9 13.7 64 4.1 NNW 11 17 6 9 1006.0 1005.8 0.0
15/09:30am 20.4 20.7 14.5 69 3.5 WNW 6 13 3 7 1006.0 1005.8 0.0
15/09:00am 19.2 20.0 14.7 75 2.6 SSW 4 7 2 4 1006.1 1005.9 0.2
15/08:30am 18.4 18.7 14.5 78 2.3 SSW 6 9 3 5 1005.7 1005.5 0.2
15/08:00am 17.4 18.0 14.3 82 1.8 SSE 4 7 2 4 1005.4 1005.2 0.2
15/07:30am 15.7 16.0 14.6 93 0.6 NE 6 9 3 5 1005.5 1005.3 0.2
15/07:00am 14.9 15.4 14.9 100 0.0 NE 6 7 3 4 1005.4 1005.2 0.2
15/06:30am 13.7 13.5 13.7 100 0.0 NNE 7 9 4 5 1005.1 1004.9 0.2
15/06:00am 12.5 12.1 12.5 100 0.0 NNW 6 7 3 4 1005.1 1004.9 0.2
15/05:30am 13.0 13.9 12.8 99 0.1 CALM 0 0 0 0 1004.7 1004.5 0.2
15/05:00am 12.7 13.1 12.5 99 0.1 SW 2 9 1 5 1004.6 1004.4 0.2
15/04:30am 13.1 12.9 12.9 99 0.1 NNW 6 7 3 4 1004.4 1004.2 0.2
15/04:00am 13.9 13.7 13.7 99 0.1 NW 7 9 4 5 1004.4 1004.2 0.2
15/03:30am 13.9 14.7 13.7 99 0.1 WSW 2 7 1 4 1004.5 1004.3 0.2
15/03:00am 13.7 13.4 13.4 98 0.2 WSW 7 9 4 5 1004.6 1004.4 0.2
15/02:30am 14.3 13.9 14.0 98 0.2 SW 9 13 5 7 1004.6 1004.4 0.2
15/02:00am 14.2 14.6 13.7 97 0.3 WSW 4 9 2 5 1004.9 1004.7 0.2
15/01:30am 14.5 14.3 13.7 95 0.4 SSW 7 11 4 6 1005.1 1004.9 0.2
15/01:00am 15.2 14.7 13.9 92 0.7 SSW 9 13 5 7 1005.1 1004.9 0.2
15/12:30am 15.6 15.0 14.5 93 0.6 SSW 11 15 6 8 1006.0 1005.8 0.2
15/12:00am 15.9 15.7 14.6 92 0.7 WSW 9 13 5 7 1006.1 1005.9 0.2
 
Date/Time
CDT
Temp
°C
App
Temp
°C
Dew
Point
°C
Rel
Hum
%
Delta-T
°C
Wind Press
QNH
hPa
Press
MSL
hPa
Rain since
9am
mm
Dir  Spd
km/h
Gust
km/h
Spd
kts
Gust
kts
14/11:30pm 16.0 16.0 14.2 89 1.0 SW 7 13 4 7 1006.1 1005.9 0.2
14/11:00pm 16.5 15.4 14.2 86 1.3 S 13 19 7 10 1006.1 1005.9 0.2
14/10:30pm 16.4 15.3 14.4 88 1.1 S 13 17 7 9 1006.2 1006.0 0.2
14/10:00pm 16.7 15.1 14.9 89 1.0 SSE 17 20 9 11 1006.0 1005.8 0.2
14/09:30pm 16.4 15.9 14.9 91 0.9 S 11 15 6 8 1005.7 1005.5 0.2
14/09:00pm 16.7 15.8 14.9 89 1.0 SSW 13 19 7 10 1005.5 1005.3 0.2
14/08:30pm 17.0 15.5 15.2 89 1.1 SW 17 22 9 12 1005.1 1004.9 0.2
14/08:00pm 17.2 15.7 15.4 89 1.1 SW 17 24 9 13 1005.3 1005.1 0.2
14/07:30pm 17.4 16.0 15.6 89 1.1 SSW 17 24 9 13 1005.0 1004.8 0.2
14/07:00pm 18.5 15.4 14.4 77 2.4 S 24 35 13 19 1004.8 1004.6 0.2
14/06:30pm 19.1 15.7 14.8 76 2.5 SSW 26 33 14 18 1004.2 1004.0 0.2
14/06:00pm 19.4 15.2 14.6 74 2.8 SSW 30 41 16 22 1003.7 1003.5 0.2
14/05:30pm 19.9 14.8 14.7 72 3.1 SSW 35 44 19 24 1003.5 1003.3 0.2
14/05:00pm 20.3 15.2 14.9 71 3.2 SSW 35 46 19 25 1003.0 1002.8 0.2
14/04:30pm 21.1 16.1 15.0 68 3.6 SSW 35 48 19 26 1002.8 1002.6 0.2
14/04:00pm 23.0 19.1 13.2 54 5.7 S 26 39 14 21 1002.7 1002.5 0.2
14/03:30pm 23.5 20.0 13.4 53 5.9 S 24 35 13 19 1002.9 1002.7 0.2
14/03:00pm 22.5 18.8 14.9 62 4.5 SSW 28 39 15 21 1003.4 1003.2 0.2
14/02:30pm 21.3 17.8 15.4 69 3.5 SSW 28 37 15 20 1003.3 1003.1 0.2
14/02:00pm 21.3 17.0 16.0 72 3.2 SSW 33 43 18 23 1003.4 1003.2 0.2
14/01:30pm 20.4 15.6 14.7 70 3.4 SW 33 46 18 25 1003.4 1003.2 0.2
14/01:00pm 21.8 17.7 13.7 60 4.7 S 28 39 15 21 1003.3 1003.1 0.2
14/12:30pm 22.4 18.5 14.3 60 4.8 SSW 28 41 15 22 1003.1 1002.9 0.2
14/12:00pm 21.5 16.3 12.9 58 4.9 S 32 44 17 24 1003.3 1003.1 0.2
14/11:30am 19.5 15.0 12.5 64 3.9 S 28 35 15 19 1003.4 1003.2 0.2
14/11:00am 18.9 16.3 13.7 72 3.0 S 20 30 11 16 1003.4 1003.2 0.2
14/10:30am 16.9 14.2 14.7 87 1.3 SE 22 32 12 17 1004.0 1003.8 0.0
14/10:15am 16.9 13.2 15.1 89 1.0 SSE 28 48 15 26 1004.2 1004.0 0.0
14/10:00am 17.9 14.3 15.3 85 1.5 SSW 28 35 15 19 1003.5 1003.3 0.0
14/09:30am 18.3 14.5 15.7 85 1.5 SSW 30 41 16 22 1003.0 1002.8 0.0
14/09:00am 16.6 12.6 15.1 91 0.9 SSW 30 41 16 22 1003.3 1003.1 6.6
14/08:30am 15.8 10.3 14.7 93 0.6 SW 37 48 20 26 1003.2 1003.0 6.6
14/08:05am 15.5 10.8 14.2 92 0.7 SW 32 50 17 27 1003.0 1002.8 6.6
14/08:00am 15.5 10.8 14.4 93 0.6 SW 32 46 17 25 1003.0 1002.8 6.6
14/07:30am 15.1 10.4 14.3 95 0.5 SW 32 46 17 25 1003.3 1003.1 6.6
14/07:05am 14.7 10.7 14.2 97 0.3 SW 28 46 15 25 1003.5 1003.3 6.6
14/07:00am 14.5 9.7 14.0 97 0.3 SW 32 46 17 25 1003.4 1003.2 6.6
14/06:30am 14.2 8.2 13.4 95 0.4 SW 37 50 20 27 1003.5 1003.3 6.6
14/06:19am 14.1 8.9 13.3 95 0.4 SW 33 52 18 28 1003.4 1003.2 6.6
14/06:00am 13.9 8.2 13.1 95 0.4 SW 35 52 19 28 1003.2 1003.0 6.4
14/05:39am 13.6 7.9 13.1 97 0.3 SW 35 54 19 29 1003.5 1003.3 6.4
14/05:30am 13.5 7.9 13.2 98 0.2 SW 35 52 19 28 1003.7 1003.5 6.2
14/05:04am 13.2 7.1 13.0 99 0.1 SW 37 56 20 30 1003.9 1003.7 6.2
14/05:00am 13.2 6.7 13.0 99 0.1 SW 39 56 21 30 1003.8 1003.6 6.0
14/04:30am 12.9 6.7 12.7 99 0.1 SW 37 56 20 30 1004.1 1003.9 5.8
14/04:00am 12.8 6.6 12.5 98 0.2 SW 37 57 20 31 1004.6 1004.4 5.4
14/03:56am 12.8 6.6 12.5 98 0.2 SW 37 57 20 31 1004.6 1004.4 5.4
14/03:30am 12.7 6.7 12.2 97 0.3 SW 35 46 19 25 1004.9 1004.7 5.2
14/03:00am 12.6 7.1 12.3 98 0.2 SW 33 48 18 26 1005.7 1005.5 4.8
14/02:37am 12.4 6.7 11.9 97 0.3 SW 33 54 18 29 1005.9 1005.7 4.6
14/02:30am 12.5 7.1 12.2 98 0.2 SW 32 44 17 24 1006.1 1005.9 4.6
14/02:18am 12.4 7.0 12.1 98 0.2 SW 32 52 17 28 1006.4 1006.2 4.4
14/02:00am 12.2 6.7 11.9 98 0.2 SW 32 48 17 26 1006.7 1006.5 4.4
14/01:54am 12.2 6.4 11.6 96 0.3 SW 33 52 18 28 1006.9 1006.7 4.0
14/01:30am 12.4 5.6 10.5 88 1.0 SW 37 52 20 28 1007.2 1007.0 3.6
14/01:04am 12.5 5.1 9.7 83 1.4 SW 39 59 21 32 1007.1 1006.9 3.6
14/01:00am 12.8 6.1 9.8 82 1.5 SW 35 50 19 27 1007.2 1007.0 3.4
14/12:36am 13.3 5.8 9.5 78 1.9 SW 39 57 21 31 1007.6 1007.4 3.4
14/12:30am 13.1 5.5 9.2 77 2.0 SW 39 56 21 30 1007.5 1007.3 3.4
14/12:05am 13.9 6.0 7.7 66 3.1 SW 39 57 21 31 1008.0 1007.8 3.4
14/12:00am 13.8 6.3 7.8 67 3.0 SW 37 50 20 27 1008.1 1007.9 3.4
 
Date/Time
CDT
Temp
°C
App
Temp
°C
Dew
Point
°C
Rel
Hum
%
Delta-T
°C
Wind Press
QNH
hPa
Press
MSL
hPa
Rain since
9am
mm
Dir  Spd
km/h
Gust
km/h
Spd
kts
Gust
kts
13/11:51pm 13.4 7.4 8.7 73 2.4 SW 30 48 16 26 1008.2 1008.0 3.4
13/11:30pm 12.7 5.8 8.8 77 2.0 SW 35 48 19 26 1008.6 1008.4 3.4
13/11:20pm 13.7 7.9 7.9 68 2.9 SW 28 46 15 25 1008.8 1008.6 3.4
13/11:00pm 13.1 7.9 8.8 75 2.2 SSW 26 37 14 20 1009.0 1008.8 3.4
13/10:30pm 12.6 6.7 8.9 78 1.9 SSW 30 41 16 22 1009.4 1009.2 3.4
13/10:11pm 12.8 5.5 8.9 77 2.0 SSW 37 61 20 33 1009.5 1009.3 3.4
13/10:00pm 13.6 6.0 7.6 67 3.0 SW 37 50 20 27 1009.6 1009.4 3.4
13/09:30pm 13.2 5.6 7.4 68 2.8 SSW 37 52 20 28 1009.8 1009.6 3.4
13/09:00pm 13.3 6.2 6.6 64 3.2 SW 33 57 18 31 1009.7 1009.5 3.4
13/08:44pm 13.0 5.7 7.2 68 2.8 SW 35 54 19 29 1009.7 1009.5 3.4
13/08:30pm 12.9 6.2 7.4 69 2.7 SW 32 46 17 25 1009.7 1009.5 3.4
13/08:00pm 12.3 4.5 8.4 77 1.9 SW 39 52 21 28 1009.9 1009.7 3.4
13/07:33pm 13.6 6.6 6.7 63 3.3 SW 33 52 18 28 1009.7 1009.5 3.0
13/07:30pm 13.7 6.3 6.6 62 3.4 SW 35 52 19 28 1009.7 1009.5 3.0
13/07:02pm 13.5 5.3 6.6 63 3.3 SSW 39 57 21 31 1009.4 1009.2 3.0
13/07:00pm 13.7 5.1 6.6 62 3.4 SSW 41 57 22 31 1009.4 1009.2 3.0
13/06:30pm 14.5 5.1 7.1 61 3.6 SSW 46 65 25 35 1008.8 1008.6 3.0
13/06:00pm 15.3 5.2 5.5 52 4.7 SW 48 67 26 36 1008.6 1008.4 3.0
13/05:36pm 15.7 6.0 5.6 51 4.8 SW 46 69 25 37 1008.7 1008.5 3.0
13/05:30pm 15.3 5.7 6.1 54 4.5 SW 46 63 25 34 1008.6 1008.4 3.0
13/05:03pm 14.6 5.4 5.4 54 4.4 SW 43 61 23 33 1008.5 1008.3 3.0
13/05:00pm 15.0 6.1 6.8 58 4.0 SW 43 57 23 31 1008.6 1008.4 3.0
13/04:33pm 15.0 7.4 7.5 61 3.7 SSW 37 56 20 30 1008.7 1008.5 3.0
13/04:30pm 14.7 6.8 8.0 64 3.4 SSW 39 56 21 30 1008.8 1008.6 3.0
13/04:00pm 15.6 7.4 8.1 61 3.8 SSW 41 59 22 32 1008.7 1008.5 3.0
13/03:30pm 14.7 4.7 7.7 63 3.5 SW 50 70 27 38 1008.5 1008.3 3.0
13/03:01pm 14.2 5.1 8.6 69 2.8 SSW 46 65 25 35 1008.6 1008.4 3.0
13/03:00pm 14.3 4.9 8.9 70 2.8 SSW 48 65 26 35 1008.5 1008.3 3.0
13/02:54pm 14.0 5.2 8.0 67 3.0 SSW 44 65 24 35 1008.5 1008.3 3.0
13/02:44pm 14.2 7.6 8.4 68 2.9 SSW 33 54 18 29 1008.4 1008.2 3.0
13/02:41pm 13.5 8.3 11.6 88 1.0 S 30 52 16 28 1008.4 1008.2 3.0
13/02:30pm 11.2 3.2 10.3 94 0.5 SSW 43 65 23 35 1008.7 1008.5 2.6
13/02:29pm 11.2 2.9 10.1 93 0.6 SSW 44 65 24 35 1008.7 1008.5 2.6
13/02:27pm 10.9 2.1 9.7 92 0.6 SSW 46 65 25 35 1008.8 1008.6 2.4
13/02:26pm 10.7 1.4 9.3 91 0.7 SSW 48 65 26 35 1008.8 1008.6 2.0
13/02:15pm 16.0 7.8 6.4 53 4.7 SW 39 59 21 32 1008.3 1008.1 1.4
13/02:00pm 15.7 6.5 6.2 53 4.6 SSW 44 59 24 32 1008.6 1008.4 1.4

Other Formats:

Comma delimited format used in spreadsheet applications
http://www.bom.gov.au/fwo/IDS60801/IDS60801.95671.axf

JavaScript Object Notation format (JSON) in row-major order
http://www.bom.gov.au/fwo/IDS60801/IDS60801.95671.json